KFXY/FXY METAR and TAF weather

Enter ICAO airport designator
Station Type Date Time Source
KFXY METAR 2021/07/26 16:35 UTC NOAA

KFXY 261635Z AUTO 24008KT 10SM CLR 28/19 A3006 RMK AO2


Station Type Date Time Source
KFXY Decoded METAR 2021/07/26 16:35 UTC NOAA

Station name not available
Jul 26, 2021 - 12:35 PM EDT / 2021.07.26 1635 UTC
Wind: from the WSW (240 degrees) at 9 MPH (8 KT):0
Visibility: 10 mile(s):0
Sky conditions: clear
Temperature: 82 F (28 C)
Dew Point: 66 F (19 C)
Relative Humidity: 58%
Pressure (altimeter): 30.06 in. Hg (1017 hPa)
ob: KFXY 261635Z AUTO 24008KT 10SM CLR 28/19 A3006 RMK AO2
cycle: 16

Station Type Date Time Source
KFXY TAF UTC NOAA

Error!

Example: see airport list